Aktualne dane pomiarowe

Uwaga, wersja testowa! Automatyczne pobieranie danych za pomocą narzędzi lub skryptów to umożliwiających jest zabronione.

Dane meteo z obszaru Polski uzyskane na podstawie depesz SYNOP pobieranych co godzinę z NWS. Najedź myszką na symbol przedstawiony w tabeli, aby uzyskać informacje co do jego znaczenia. Prosimy pamiętać, że to testowa wersja strony, która jeszcze nie jest ukończona. Stworzono również jest krótki FAQ dotyczący korzystania z tej podstrony Anomalie temperatury w chwili obecnej odniesione są do okresu referencyjnego 1951-2016. Okres ten będzie później zmieniony na 1981-2010. Kliknij ikonę aby pobrać plik CSV. Kliknij ikonę aby wygenerować mapę synoptyczną dla danego terminu.

Wybierz Datę:    

        

Radom (12485)

Dane terminowe dla wybranej stacji. Kliknij datę, aby otrzymać dane z tego terminu dla wszystkich stacji.

TemperaturaZachmurzenieWiatrCiśnienieOpadyPogoda
 Data t td wb tx tn tg rh  Nt Nl Cl Cm Ch ws wd g1 g2 wx mslp ppp ch 24h 12h t ww ww w1 w2  
2019-06-30 23:00:00 19.6 13.6 15.7--- 6810.0wx-4wx---1012.0 990.5 0.3---------
2019-06-30 22:00:00 20.6 13.6 16.1--- 6410.0wx-4wx---1012.0 990.6 0.2---------
2019-06-30 21:00:00 21.8 13.5 16.5--- 5910.0wx-wx4wx---1012.3 991.0 0.3---------
2019-06-30 20:00:00 22.5 13.6 16.9--- 5710.0wx-wx4wx---1012.1 990.8 -0.4---------
2019-06-30 19:00:00 25.5 13.7 18.1--- 4810.0wx-3wx---1011.9 990.8 -0.8---------
2019-06-30 18:00:00 29.1 14.2 19.8--- 4010.0wx-2wx---1011.5 990.7 -1.3---------
2019-06-30 17:00:00 32.9 12.6 20.4--- 2910.0wx-2wx---1011.7 991.2 -1.5---------
2019-06-30 16:00:00 34.1 11.3 20.2--- 2510.0wx-3wx---1012.1 991.6 -1.8---------
2019-06-30 15:00:00 34.4 9.7 19.6--- 2210.0wx-4wx---1012.5 992.0 -2.0---------
2019-06-30 14:00:00 34.0 10.6 19.8--- 2410.0wx-4wx---1013.2 992.7 -1.8---------
2019-06-30 13:00:00 33.8 11.7 20.3--- 2610.0wx-5wx---1013.9 993.4 -1.6---------
2019-06-30 12:00:00 31.7 12.0 19.7--- 3010.0wx-4wx---1014.7 994.0 -1.2---------
2019-06-30 11:00:00 31.7 11.0 19.2--- 2810.0wx-6wx---1015.2 994.5 -0.9---------
2019-06-30 10:00:00 30.4 10.9 18.7--- 3010.0wx-5wx---1015.8 995.0 -0.6---------
2019-06-30 09:00:00 29.0 10.2 17.9--- 3110.0wx-5wx---1016.1 995.2 -0.2---------
2019-06-30 08:00:00 27.2 12.1 18.0--- 3910.0wx-4wx---1016.4 995.4 -0.2---------
2019-06-30 07:00:00 25.2 11.8 17.1--- 4310.0wx-4wx---1016.8 995.6 0.3---------
2019-06-30 06:00:00 23.1 11.8 16.2--- 4910.0wx-wx4wx---1016.7 995.4 0.4---------
2019-06-30 05:00:00 21.2 10.7 14.9--- 5110.0wx-wxwx3wx---1017.1 995.6 0.7---------
2019-06-30 04:00:00 18.8 10.1 13.6--- 5710.0wx-wxwx3wx---1017.0 995.3 0.1---------
2019-06-30 03:00:00 17.0 9.9 12.7--- 6310.0wx-3wx---1016.8 995.0 -0.4---------
2019-06-30 02:00:00 17.1 9.5 12.5--- 6110.0wx-4wx---1016.7 994.9 -0.7---------
2019-06-30 01:00:00 16.2 9.2 12.0--- 6310.0wx-3wx---1017.0 995.2 -0.4---------
2019-06-30 00:00:00 15.5 9.0 11.6--- 6510.0wx-3wx---1017.2 995.3 -0.6---------
2019-06-29 23:00:00 16.4 9.4 12.2--- 6310.0wx-2wx---1017.4 995.6 -0.3---------
2019-06-29 22:00:00 17.4 9.3 12.6--- 5910.0wx-3wx---1017.4 995.6 -0.4---------
2019-06-29 21:00:00 18.7 9.8 13.4--- 5610.0wx-2wx---1017.6 995.9 0.2---------
2019-06-29 20:00:00 20.8 9.4 14.1--- 4810.0wx-2wx---1017.4 995.9 0.4---------
2019-06-29 19:00:00 23.5 8.8 15.0--- 3910.0wx-wx1wx---1017.3 996.0 0.5---------
2019-06-29 18:00:00 25.3 8.4 15.6--- 3410.0wx-wx2wx---1016.9 995.7 0.1---------
2019-06-29 17:00:00 26.4 8.0 15.9--- 3110.0wx-wx4wx---1016.6 995.5 -0.6---------
2019-06-29 16:00:00 26.5 8.0 15.9--- 3110.0wx-wxwx4wx---1016.6 995.5 -1.1---------
2019-06-29 15:00:00 26.4 7.5 15.7--- 3010.0wx-wxwx4wx---1016.7 995.6 -1.7---------
2019-06-29 14:00:00 26.5 7.6 15.8--- 3010.0wxwxwxwx5wx---1017.2 996.1 -1.9---------
2019-06-29 13:00:00 25.9 7.0 15.3--- 3010.0wxwxwxwxwx5wx---1017.8 996.6 -1.7---------
2019-06-29 12:00:00 25.5 6.7 15.0--- 3010.0wxwxwxwxwx5wx---1018.5 997.3 -1.6---------
2019-06-29 11:00:00 24.9 7.1 14.9--- 3210.0wxwxwxwxwx7wx---1019.2 997.9 -0.8---------
2019-06-29 10:00:00 23.8 6.2 14.1--- 3210.0wxwxwxwx7wx---1019.6 998.3 -0.6---------
2019-06-29 09:00:00 23.0 7.2 14.1--- 3610.0wxwxwxwx6wx---1019.9 998.5 -0.5---------
2019-06-29 08:00:00 21.3 6.4 13.1--- 3810.0wxwxwxwxwx6wx---1020.1 998.6 -0.7---------
2019-06-29 07:00:00 19.9 6.6 12.5--- 4210.0wx-wxwx5wx---1020.5 998.9 -0.4---------
2019-06-29 06:00:00 18.3 6.8 11.9--- 4710.0wx-wxwx3wx---1020.8 999.0 -0.3---------
2019-06-29 05:00:00 16.0 7.3 11.0--- 5610.0wx-wxwx4wx---1021.3 999.3 0.0---------
2019-06-29 04:00:00 14.3 7.1 10.1--- 6210.0wx-wx3wx---1021.4 999.3 0.3---------
2019-06-29 03:00:00 13.1 6.2 9.1--- 6310.0wx-wx2wx---1021.5 999.3 0.3---------
2019-06-29 02:00:00 13.3 5.7 9.0--- 6010.0wx-3wx---1021.2 999.0 0.4---------
2019-06-29 01:00:00 13.3 5.7 9.0--- 6010.0wx-3wx---1021.2 999.0 0.4---------
2019-06-29 00:00:00 14.2 5.6 9.4--- 5610.0wx-3wx---1021.1 999.0 0.8---------
7.4 ms

 

Print Friendly, PDF & Email